createdAt,value
2018-09-18T00:00:29.639Z,16.40
2018-09-18T00:03:02.467Z,16.40
2018-09-18T00:05:35.096Z,16.40
2018-09-18T00:08:07.910Z,16.40
2018-09-18T00:10:40.869Z,16.40
2018-09-18T00:13:13.597Z,16.40
2018-09-18T00:15:46.395Z,16.40
2018-09-18T00:18:19.151Z,16.40
2018-09-18T00:20:52.120Z,16.40
2018-09-18T00:23:24.992Z,16.40
2018-09-18T00:25:59.766Z,16.40
2018-09-18T00:28:32.616Z,16.40
2018-09-18T00:31:05.681Z,16.40
2018-09-18T00:33:38.565Z,16.40
2018-09-18T00:36:11.473Z,16.40
2018-09-18T00:38:44.264Z,16.40
2018-09-18T00:41:20.475Z,16.40
2018-09-18T00:43:56.133Z,16.40
2018-09-18T00:46:32.263Z,16.40
2018-09-18T00:49:04.976Z,16.40
2018-09-18T00:51:37.894Z,16.40
2018-09-18T00:54:12.922Z,16.50
2018-09-18T00:56:47.376Z,16.40
2018-09-18T00:59:20.344Z,16.50
2018-09-18T01:01:53.133Z,16.50
2018-09-18T01:04:26.042Z,16.40
2018-09-18T01:06:58.770Z,16.40
2018-09-18T01:09:33.273Z,16.40
2018-09-18T01:12:06.287Z,16.40
2018-09-18T01:14:42.048Z,16.40
2018-09-18T01:17:14.836Z,16.40
2018-09-18T01:19:47.737Z,16.50
2018-09-18T01:22:20.575Z,16.50
2018-09-18T01:24:54.325Z,16.50
2018-09-18T01:27:27.768Z,16.50
2018-09-18T01:30:00.674Z,16.50
2018-09-18T01:32:42.959Z,16.50
2018-09-18T01:35:15.763Z,16.60
2018-09-18T01:37:49.280Z,16.60
2018-09-18T01:40:22.156Z,16.60
2018-09-18T01:42:55.622Z,16.60
2018-09-18T01:45:31.122Z,16.60
2018-09-18T01:48:03.949Z,16.70
2018-09-18T01:50:39.000Z,16.50
2018-09-18T01:53:11.912Z,16.60
2018-09-18T01:55:45.560Z,16.60
2018-09-18T01:58:18.609Z,16.60
2018-09-18T02:00:54.720Z,16.60
2018-09-18T02:03:27.309Z,16.60
2018-09-18T02:05:59.950Z,16.70
2018-09-18T02:08:32.533Z,16.70
2018-09-18T02:11:05.175Z,16.70
2018-09-18T02:13:37.901Z,16.60
2018-09-18T02:16:10.563Z,16.60
2018-09-18T02:18:43.272Z,16.60
2018-09-18T02:21:16.019Z,16.60
2018-09-18T02:23:48.704Z,16.60
2018-09-18T02:26:21.439Z,16.60
2018-09-18T02:28:54.070Z,16.60
2018-09-18T02:31:26.778Z,16.60
2018-09-18T02:33:59.424Z,16.70
2018-09-18T02:36:32.076Z,16.70
2018-09-18T02:39:08.743Z,16.60
2018-09-18T02:41:42.293Z,16.60
2018-09-18T02:44:15.843Z,16.70
2018-09-18T02:46:48.704Z,16.60
2018-09-18T02:49:21.649Z,16.60
2018-09-18T02:51:54.451Z,16.60
2018-09-18T02:54:27.184Z,16.60
2018-09-18T02:56:59.972Z,16.60
2018-09-18T02:59:32.831Z,16.60
2018-09-18T03:02:06.470Z,16.60
2018-09-18T03:04:39.403Z,16.60
2018-09-18T03:07:12.214Z,16.60
2018-09-18T03:09:44.992Z,16.60
2018-09-18T03:12:18.319Z,16.60
2018-09-18T03:14:51.252Z,16.70
2018-09-18T03:17:23.907Z,16.70
2018-09-18T03:19:57.183Z,16.60
2018-09-18T03:22:29.860Z,16.60
2018-09-18T03:25:03.311Z,16.60
2018-09-18T03:27:35.970Z,16.60
2018-09-18T03:30:08.648Z,16.70
2018-09-18T03:32:41.358Z,16.60
2018-09-18T03:35:14.140Z,16.60
2018-09-18T03:37:46.821Z,16.60
2018-09-18T03:40:19.490Z,16.60
2018-09-18T03:42:52.773Z,16.50
2018-09-18T03:45:25.422Z,16.60
2018-09-18T03:47:58.056Z,16.60
2018-09-18T03:50:32.094Z,16.50
2018-09-18T03:53:04.745Z,16.60
2018-09-18T03:55:37.385Z,16.60
2018-09-18T03:58:10.049Z,16.50
2018-09-18T04:00:42.724Z,16.60
2018-09-18T04:03:15.394Z,16.50
2018-09-18T04:05:48.089Z,16.50
2018-09-18T04:08:20.961Z,16.50
2018-09-18T04:10:53.677Z,16.60
2018-09-18T04:13:26.439Z,16.60
2018-09-18T04:15:59.164Z,16.50
2018-09-18T04:18:32.557Z,16.60
2018-09-18T04:21:05.405Z,16.60
2018-09-18T04:23:38.262Z,16.60
2018-09-18T04:26:17.015Z,16.50
2018-09-18T04:28:49.723Z,16.60
2018-09-18T04:31:28.655Z,16.50
2018-09-18T04:34:01.491Z,16.50
2018-09-18T04:36:36.164Z,16.50
2018-09-18T04:39:12.353Z,16.50
2018-09-18T04:41:45.228Z,16.50
2018-09-18T04:44:18.647Z,16.40
2018-09-18T04:46:51.402Z,16.50
2018-09-18T04:49:24.200Z,16.50
2018-09-18T04:51:57.115Z,16.50
2018-09-18T04:54:29.943Z,16.50
2018-09-18T04:57:05.741Z,16.50
2018-09-18T04:59:42.407Z,16.50
2018-09-18T05:02:15.125Z,16.50
2018-09-18T05:04:47.858Z,16.50
2018-09-18T05:07:20.539Z,16.50
2018-09-18T05:09:53.222Z,16.50
2018-09-18T05:12:26.042Z,16.50
2018-09-18T05:14:58.756Z,16.60
2018-09-18T05:17:31.698Z,16.60
2018-09-18T05:20:05.366Z,16.60
2018-09-18T05:22:38.149Z,16.60
2018-09-18T05:25:10.857Z,16.60
2018-09-18T05:27:43.508Z,16.60
2018-09-18T05:30:16.248Z,16.60
2018-09-18T05:32:48.950Z,16.60
2018-09-18T05:35:21.726Z,16.50
2018-09-18T05:37:54.459Z,16.60
2018-09-18T05:40:27.161Z,16.50
2018-09-18T05:42:59.882Z,16.50
2018-09-18T05:45:32.676Z,16.50
2018-09-18T05:48:05.449Z,16.50
2018-09-18T05:50:42.967Z,16.40
2018-09-18T05:53:15.600Z,16.50
2018-09-18T05:55:48.289Z,16.50
2018-09-18T05:58:21.054Z,16.50
2018-09-18T06:00:53.826Z,16.50
2018-09-18T06:03:26.577Z,16.50
2018-09-18T06:05:59.536Z,16.50
2018-09-18T06:08:32.232Z,16.60
2018-09-18T06:11:04.936Z,16.60
2018-09-18T06:13:37.566Z,16.60
2018-09-18T06:16:10.659Z,16.60
2018-09-18T06:18:43.401Z,16.60
2018-09-18T06:21:16.066Z,16.60
2018-09-18T06:23:48.844Z,16.70
2018-09-18T06:26:21.783Z,16.70
2018-09-18T06:28:54.554Z,16.70
2018-09-18T06:31:27.326Z,16.70
2018-09-18T06:34:00.695Z,16.80
2018-09-18T06:36:33.597Z,16.80
2018-09-18T06:39:08.240Z,16.80
2018-09-18T06:41:41.311Z,16.90
2018-09-18T06:44:14.132Z,16.90
2018-09-18T06:46:47.221Z,16.90
2018-09-18T06:49:21.732Z,16.90
2018-09-18T06:51:54.648Z,17.00
2018-09-18T06:54:27.507Z,17.00
2018-09-18T06:57:00.292Z,17.00
2018-09-18T06:59:33.641Z,17.00
2018-09-18T07:02:06.554Z,17.10
2018-09-18T07:04:39.578Z,17.10
2018-09-18T07:07:12.416Z,17.10
2018-09-18T07:09:45.186Z,17.20
2018-09-18T07:12:17.932Z,17.20
2018-09-18T07:14:50.807Z,17.30
2018-09-18T07:17:23.658Z,17.30
2018-09-18T07:19:56.532Z,17.30
2018-09-18T07:22:29.379Z,17.30
2018-09-18T07:25:02.232Z,17.40
2018-09-18T07:27:35.216Z,17.40
2018-09-18T07:30:08.891Z,17.50
2018-09-18T07:32:41.689Z,17.50
2018-09-18T07:35:14.491Z,17.60
2018-09-18T07:37:47.179Z,17.60
2018-09-18T07:40:19.983Z,17.70
2018-09-18T07:42:52.866Z,17.70
2018-09-18T07:45:26.526Z,17.80
2018-09-18T07:47:59.238Z,17.80
2018-09-18T07:50:31.929Z,17.90
2018-09-18T07:53:04.946Z,18.00
2018-09-18T07:55:37.690Z,18.00
2018-09-18T07:58:10.364Z,18.10
2018-09-18T08:00:43.083Z,18.10
2018-09-18T08:03:15.819Z,18.20
2018-09-18T08:05:49.218Z,18.20
2018-09-18T08:08:22.165Z,18.30
2018-09-18T08:10:55.974Z,18.30
2018-09-18T08:13:28.655Z,18.40
2018-09-18T08:16:01.407Z,18.50
2018-09-18T08:18:34.047Z,18.50
2018-09-18T08:21:06.795Z,18.60
2018-09-18T08:23:39.487Z,18.60
2018-09-18T08:26:12.326Z,18.70
2018-09-18T08:28:44.988Z,18.70
2018-09-18T08:31:17.663Z,18.70
2018-09-18T08:33:50.392Z,18.80
2018-09-18T08:36:23.007Z,18.90
2018-09-18T08:38:55.708Z,19.00
2018-09-18T08:41:28.503Z,19.10
2018-09-18T08:44:01.264Z,19.20
2018-09-18T08:46:34.393Z,19.20
2018-09-18T08:49:08.627Z,19.30
2018-09-18T08:51:41.431Z,19.40
2018-09-18T08:54:14.177Z,19.50
2018-09-18T08:56:46.851Z,19.50
2018-09-18T08:59:19.655Z,19.60
2018-09-18T09:01:52.713Z,19.60
2018-09-18T09:04:27.769Z,19.70
2018-09-18T09:07:01.347Z,19.70
2018-09-18T09:09:33.992Z,19.70
2018-09-18T09:12:06.758Z,19.70
2018-09-18T09:14:39.511Z,19.70
2018-09-18T09:17:12.273Z,19.80
2018-09-18T09:19:44.996Z,19.80
2018-09-18T09:22:17.780Z,19.90
2018-09-18T09:24:50.770Z,19.90
2018-09-18T09:27:23.541Z,20.10
2018-09-18T09:29:58.389Z,20.10
2018-09-18T09:32:31.146Z,20.10
2018-09-18T09:35:19.409Z,20.10
2018-09-18T09:37:57.823Z,20.10
2018-09-18T09:40:30.684Z,20.20
2018-09-18T09:43:22.447Z,20.30
2018-09-18T09:45:55.610Z,20.30
2018-09-18T09:49:03.863Z,20.50
2018-09-18T09:51:39.162Z,20.60
2018-09-18T09:54:11.869Z,20.70
2018-09-18T09:56:45.162Z,20.70
2018-09-18T09:59:42.036Z,20.80
2018-09-18T10:02:35.598Z,20.90
2018-09-18T10:06:30.682Z,21.00
2018-09-18T10:09:06.188Z,21.00
2018-09-18T10:11:43.514Z,21.10
2018-09-18T10:14:16.239Z,21.20
2018-09-18T10:16:49.255Z,21.20
2018-09-18T10:19:22.089Z,21.40
2018-09-18T10:21:55.846Z,21.50
2018-09-18T10:24:28.588Z,21.60
2018-09-18T10:29:58.867Z,21.80
2018-09-18T10:32:31.679Z,21.90
2018-09-18T10:35:05.140Z,22.00
2018-09-18T10:37:37.815Z,22.00
2018-09-18T10:40:10.518Z,22.10
2018-09-18T10:42:43.153Z,22.10
2018-09-18T10:45:15.880Z,22.20
2018-09-18T10:47:48.538Z,22.20
2018-09-18T10:50:21.554Z,22.20
2018-09-18T10:52:54.266Z,22.40
2018-09-18T10:55:27.070Z,22.40
2018-09-18T10:57:59.723Z,22.50
2018-09-18T11:00:32.945Z,22.60
2018-09-18T11:03:05.767Z,22.60
2018-09-18T11:05:39.034Z,22.60
2018-09-18T11:53:41.847Z,22.60
2018-09-18T11:56:14.608Z,25.30
2018-09-18T11:58:47.945Z,25.60
2018-09-18T12:01:21.714Z,25.70
2018-09-18T12:03:54.494Z,25.90
2018-09-18T12:06:27.179Z,26.10
2018-09-18T12:08:59.895Z,26.20
2018-09-18T12:11:32.862Z,26.40
2018-09-18T12:14:05.674Z,26.60
2018-09-18T12:16:38.335Z,27.10
2018-09-18T12:19:12.102Z,27.20
2018-09-18T12:21:44.792Z,27.20
2018-09-18T12:24:17.508Z,27.20
2018-09-18T12:26:50.289Z,27.20
2018-09-18T12:29:23.047Z,27.20
2018-09-18T12:31:56.701Z,27.60
2018-09-18T12:34:29.333Z,27.90
2018-09-18T12:37:01.990Z,27.90
2018-09-18T17:45:00.880Z,20.40
2018-09-18T17:47:34.997Z,20.40
2018-09-18T17:50:07.820Z,20.30
2018-09-18T17:52:40.546Z,20.20
2018-09-18T17:55:14.766Z,20.10
2018-09-18T17:57:49.089Z,20.10
2018-09-18T18:00:22.822Z,20.00
2018-09-18T18:02:56.151Z,19.90
2018-09-18T18:05:29.856Z,19.80
2018-09-18T18:08:04.310Z,19.80
2018-09-18T18:10:38.130Z,19.70
2018-09-18T18:13:11.679Z,19.70
2018-09-18T18:15:45.173Z,19.70
2018-09-18T18:18:17.937Z,19.60
2018-09-18T18:20:51.309Z,19.60
2018-09-18T18:23:27.933Z,19.60
2018-09-18T18:26:03.438Z,19.60
2018-09-18T18:28:38.611Z,19.40
2018-09-18T18:31:14.068Z,19.40
2018-09-18T18:33:46.877Z,19.30
2018-09-18T18:36:19.726Z,19.20
2018-09-18T18:38:53.977Z,19.10
2018-09-18T18:41:27.775Z,19.10
2018-09-18T18:44:02.806Z,19.00
2018-09-18T18:46:36.562Z,19.00
2018-09-18T18:49:09.551Z,19.00
2018-09-18T18:51:42.440Z,18.90
2018-09-18T18:54:15.867Z,18.80
2018-09-18T18:56:48.675Z,18.90
2018-09-18T18:59:22.069Z,18.80
2018-09-18T19:01:55.097Z,18.80
2018-09-18T19:07:06.493Z,18.70
2018-09-18T19:09:39.419Z,18.60
2018-09-18T19:12:13.380Z,18.60
2018-09-18T19:14:46.287Z,18.60
2018-09-18T19:17:21.565Z,18.50
2018-09-18T19:19:54.488Z,18.50
2018-09-18T19:22:27.545Z,18.40
2018-09-18T19:25:00.526Z,18.40
2018-09-18T19:27:33.797Z,18.40
2018-09-18T19:30:07.155Z,18.30
2018-09-18T19:32:40.958Z,18.30
2018-09-18T19:35:13.972Z,18.30
2018-09-18T19:37:47.406Z,18.30
2018-09-18T19:40:21.235Z,18.30
2018-09-18T19:42:54.883Z,18.40
2018-09-18T19:45:27.999Z,18.40
2018-09-18T19:48:01.481Z,18.40
2018-09-18T19:50:35.308Z,18.50
2018-09-18T19:53:08.235Z,18.50
2018-09-18T19:55:41.178Z,18.50
2018-09-18T19:58:14.018Z,18.60
2018-09-18T20:00:47.106Z,18.60
2018-09-18T20:03:20.850Z,18.70
2018-09-18T20:05:55.515Z,18.70
2018-09-18T20:08:28.298Z,18.70
2018-09-18T20:11:01.429Z,18.80
2018-09-18T20:13:34.167Z,18.80
2018-09-18T20:16:06.918Z,18.80
2018-09-18T20:18:40.285Z,18.90
2018-09-18T20:21:13.092Z,18.80
2018-09-18T20:23:46.505Z,18.80
2018-09-18T20:26:19.155Z,18.80
2018-09-18T20:28:52.439Z,18.80
2018-09-18T20:31:25.458Z,18.70
2018-09-18T20:33:58.513Z,18.70
2018-09-18T20:36:31.667Z,18.70
2018-09-18T20:39:06.558Z,18.70
2018-09-18T20:41:40.065Z,18.70
2018-09-18T20:44:12.769Z,18.60
2018-09-18T20:46:45.450Z,18.60
2018-09-18T20:49:19.015Z,18.60
2018-09-18T20:51:51.710Z,18.60
2018-09-18T20:54:24.549Z,18.60
2018-09-18T20:56:57.223Z,18.60
2018-09-18T20:59:31.460Z,18.60
2018-09-18T21:02:04.564Z,18.50
2018-09-18T21:04:37.364Z,18.50
2018-09-18T21:07:10.148Z,18.50
2018-09-18T21:09:43.916Z,18.50
2018-09-18T21:12:16.536Z,18.60
2018-09-18T21:14:49.248Z,18.60
2018-09-18T21:17:22.651Z,18.60
2018-09-18T21:19:55.649Z,18.60
2018-09-18T21:22:28.247Z,18.50
2018-09-18T21:25:18.362Z,18.50
2018-09-18T21:27:51.053Z,18.50
2018-09-18T21:30:23.771Z,18.40
2018-09-18T21:32:56.432Z,18.40
2018-09-18T21:35:29.084Z,18.40
2018-09-18T21:38:01.787Z,18.30
2018-09-18T21:40:34.458Z,18.30
2018-09-18T21:43:07.093Z,18.30
2018-09-18T21:45:39.793Z,18.30
2018-09-18T21:48:12.420Z,18.30
2018-09-18T21:50:46.396Z,18.30
2018-09-18T21:53:19.117Z,18.30
2018-09-18T21:55:51.779Z,18.30
2018-09-18T21:58:24.484Z,18.30
2018-09-18T22:00:57.568Z,18.30
2018-09-18T22:03:30.365Z,18.20
2018-09-18T22:06:04.443Z,18.30
2018-09-18T22:08:37.067Z,18.20
2018-09-18T22:11:09.797Z,18.30
2018-09-18T22:13:42.489Z,18.20
2018-09-18T22:16:15.105Z,18.20
2018-09-18T22:18:47.986Z,18.20
2018-09-18T22:21:21.037Z,18.20
2018-09-18T22:23:54.266Z,18.20
2018-09-18T22:26:27.034Z,18.10
2018-09-18T22:29:00.579Z,18.10
2018-09-18T22:31:33.235Z,18.10
2018-09-18T22:34:05.973Z,18.20
2018-09-18T22:36:38.723Z,18.20
2018-09-18T22:39:11.319Z,18.10
2018-09-18T22:41:44.003Z,18.20
2018-09-18T22:44:16.615Z,18.20
2018-09-18T22:46:49.279Z,18.10
2018-09-18T22:49:22.109Z,18.10
2018-09-18T22:51:54.801Z,18.10
2018-09-18T22:54:27.509Z,18.10
2018-09-18T22:57:00.145Z,18.10
2018-09-18T22:59:32.767Z,18.10
2018-09-18T23:02:05.531Z,18.10
2018-09-18T23:04:38.445Z,18.10
2018-09-18T23:07:11.770Z,18.10
2018-09-18T23:09:44.527Z,18.10
2018-09-18T23:12:17.160Z,18.10
2018-09-18T23:14:50.140Z,18.00
2018-09-18T23:17:22.859Z,18.00
2018-09-18T23:19:55.499Z,17.90
2018-09-18T23:22:28.257Z,18.00
2018-09-18T23:25:00.887Z,17.90
2018-09-18T23:27:33.496Z,18.00
2018-09-18T23:30:06.136Z,18.00
2018-09-18T23:32:38.769Z,17.90
2018-09-18T23:35:11.403Z,18.00
2018-09-18T23:37:43.973Z,18.00
2018-09-18T23:40:16.609Z,17.90
2018-09-18T23:42:49.302Z,17.90
2018-09-18T23:45:22.049Z,17.90
2018-09-18T23:47:54.769Z,17.90
2018-09-18T23:50:27.490Z,17.90
2018-09-18T23:53:00.156Z,17.90
2018-09-18T23:55:32.788Z,17.90
2018-09-18T23:58:05.526Z,17.80
